Time;durP1;ratioP1;P1;durP2;ratioP2;P2;SDS_P1;SDS_P2;PMS_P1;PMS_P2;Temp;Humidity;BMP_temperature;BMP_pressure;BME280_temperature;BME280_humidity;BME280_pressure;Samples;Min_cycle;Max_cycle;Signal;HPM_P1;HPM_P2
2023/09/11 00:01:41;;;;;;;14.88;11.88;;;;;;;;;;5069649;28;40315;-75
2023/09/11 00:04:10;;;;;;;17.67;12.13;;;;;;;;;;5069682;28;41797;-75
2023/09/11 00:06:38;;;;;;;15.10;11.85;;;;;;;;;;5068591;28;42023;-75
2023/09/11 00:09:07;;;;;;;20.52;11.50;;;;;;;;;;5070093;28;40524;-75
2023/09/11 00:11:35;;;;;;;18.45;11.65;;;;;;;;;;5069415;28;41096;-75
2023/09/11 00:14:03;;;;;;;13.85;11.50;;;;;;;;;;5069674;28;42727;-76
2023/09/11 00:16:31;;;;;;;21.65;12.75;;;;;;;;;;5069310;28;41548;-75
2023/09/11 00:18:59;;;;;;;14.20;11.43;;;;;;;;;;5069674;28;43121;-75
2023/09/11 00:21:28;;;;;;;15.45;12.00;;;;;;;;;;5068585;28;40555;-75
2023/09/11 00:23:56;;;;;;;19.25;11.70;;;;;;;;;;5056300;28;41665;-75
2023/09/11 00:26:24;;;;;;;15.98;11.30;;;;;;;;;;5068899;28;42929;-75
2023/09/11 00:28:53;;;;;;;18.75;11.43;;;;;;;;;;5069778;28;40116;-75
2023/09/11 00:31:21;;;;;;;24.63;11.80;;;;;;;;;;5070007;28;41652;-75
2023/09/11 00:33:50;;;;;;;15.23;11.43;;;;;;;;;;5065367;28;40968;-76
2023/09/11 00:36:19;;;;;;;19.55;12.27;;;;;;;;;;5069693;28;41464;-76
2023/09/11 00:38:50;;;;;;;17.92;11.27;;;;;;;;;;5069179;28;42104;-76
2023/09/11 00:41:18;;;;;;;15.70;10.75;;;;;;;;;;5068155;28;39637;-76
2023/09/11 00:43:46;;;;;;;12.63;11.00;;;;;;;;;;5068559;28;42240;-76
2023/09/11 00:46:14;;;;;;;17.13;11.40;;;;;;;;;;5101558;28;41893;-75
2023/09/11 00:48:42;;;;;;;18.67;12.02;;;;;;;;;;5068580;28;41368;-75
2023/09/11 00:51:10;;;;;;;16.73;11.35;;;;;;;;;;5070095;28;42656;-75
2023/09/11 00:53:38;;;;;;;22.20;12.00;;;;;;;;;;5069214;28;42130;-75
2023/09/11 00:56:08;;;;;;;16.20;11.20;;;;;;;;;;5068029;28;40050;-75
2023/09/11 00:58:36;;;;;;;16.50;11.75;;;;;;;;;;5068506;28;42640;-76
2023/09/11 01:01:04;;;;;;;19.48;11.40;;;;;;;;;;5069239;28;40153;-75
2023/09/11 01:03:32;;;;;;;15.43;11.20;;;;;;;;;;5101139;28;40152;-75
2023/09/11 01:06:00;;;;;;;20.77;10.85;;;;;;;;;;5070141;28;42415;-75
2023/09/11 01:08:28;;;;;;;22.55;11.75;;;;;;;;;;5067923;28;40463;-75
2023/09/11 01:10:57;;;;;;;19.55;11.38;;;;;;;;;;5067167;28;40483;-75
2023/09/11 01:13:26;;;;;;;15.38;10.60;;;;;;;;;;5068531;28;42353;-75
2023/09/11 01:16:00;;;;;;;15.32;11.07;;;;;;;;;;5066933;28;41460;-75
2023/09/11 01:18:29;;;;;;;15.95;10.50;;;;;;;;;;5069260;28;41903;-75
2023/09/11 01:21:01;;;;;;;18.65;11.38;;;;;;;;;;5061934;28;40387;-75
2023/09/11 01:23:38;;;;;;;16.98;11.05;;;;;;;;;;5050849;28;41453;-75
2023/09/11 01:26:07;;;;;;;13.73;9.82;;;;;;;;;;5065402;28;40277;-75
2023/09/11 01:28:44;;;;;;;13.95;10.90;;;;;;;;;;5066332;28;40092;-75
2023/09/11 01:31:13;;;;;;;20.83;10.90;;;;;;;;;;5060809;28;40674;-75
2023/09/11 01:33:41;;;;;;;18.20;11.25;;;;;;;;;;5101326;28;41931;-75
2023/09/11 01:36:09;;;;;;;13.77;10.43;;;;;;;;;;5100597;27;40365;-75
2023/09/11 01:38:37;;;;;;;18.70;10.68;;;;;;;;;;5066070;28;40441;-75
2023/09/11 01:41:06;;;;;;;15.07;10.43;;;;;;;;;;5069100;28;41992;-75
2023/09/11 01:43:35;;;;;;;17.63;10.82;;;;;;;;;;5067481;28;41868;-75
2023/09/11 01:46:03;;;;;;;14.32;10.35;;;;;;;;;;5100816;28;42379;-75
2023/09/11 01:48:33;;;;;;;22.52;11.35;;;;;;;;;;5068563;28;41071;-75
2023/09/11 01:51:01;;;;;;;13.38;11.05;;;;;;;;;;5067951;28;42402;-75
2023/09/11 01:53:29;;;;;;;19.55;11.43;;;;;;;;;;5066831;28;41634;-75
2023/09/11 01:55:58;;;;;;;20.75;11.05;;;;;;;;;;5068265;28;40857;-75
2023/09/11 01:58:26;;;;;;;13.73;10.52;;;;;;;;;;5066644;28;40627;-75
2023/09/11 02:00:54;;;;;;;16.13;10.95;;;;;;;;;;5100145;28;40435;-75
2023/09/11 02:03:22;;;;;;;14.35;10.65;;;;;;;;;;5067196;28;39855;-75
2023/09/11 02:05:51;;;;;;;12.52;10.80;;;;;;;;;;5099169;27;41248;-75
2023/09/11 02:08:19;;;;;;;16.13;11.10;;;;;;;;;;5067597;28;41322;-75
2023/09/11 02:10:48;;;;;;;16.17;11.18;;;;;;;;;;5067498;28;41664;-75
2023/09/11 02:13:16;;;;;;;15.90;10.32;;;;;;;;;;5097970;28;40643;-75
2023/09/11 02:15:44;;;;;;;17.33;11.27;;;;;;;;;;5057785;28;40184;-75
2023/09/11 02:18:12;;;;;;;14.85;10.20;;;;;;;;;;5062562;28;41983;-75
2023/09/11 02:20:40;;;;;;;13.52;10.43;;;;;;;;;;5066232;28;41953;-75
2023/09/11 02:23:09;;;;;;;13.57;10.30;;;;;;;;;;5067534;28;40021;-75
2023/09/11 02:25:37;;;;;;;15.45;10.05;;;;;;;;;;5066961;28;42331;-75
2023/09/11 02:28:06;;;;;;;15.38;10.43;;;;;;;;;;5099705;28;40327;-75
2023/09/11 02:30:34;;;;;;;15.88;10.60;;;;;;;;;;5066757;28;41869;-75
2023/09/11 02:33:02;;;;;;;13.82;10.63;;;;;;;;;;5067009;28;43334;-75
2023/09/11 02:35:31;;;;;;;14.13;10.57;;;;;;;;;;5099483;28;38955;-75
2023/09/11 02:37:59;;;;;;;20.58;10.95;;;;;;;;;;5100211;28;41986;-75
2023/09/11 02:40:28;;;;;;;12.65;9.63;;;;;;;;;;5066650;28;42866;-75
2023/09/11 02:42:56;;;;;;;17.77;10.95;;;;;;;;;;5066415;28;38197;-75
2023/09/11 02:45:25;;;;;;;15.07;9.32;;;;;;;;;;5099583;28;40077;-75
2023/09/11 02:47:53;;;;;;;18.67;10.85;;;;;;;;;;5067026;28;34922;-75
2023/09/11 02:50:23;;;;;;;15.02;10.38;;;;;;;;;;5098768;28;39848;-75
2023/09/11 02:52:51;;;;;;;15.73;10.80;;;;;;;;;;5066974;28;41882;-75
2023/09/11 02:55:19;;;;;;;14.90;10.50;;;;;;;;;;5066619;28;41499;-75
2023/09/11 02:57:48;;;;;;;14.50;10.43;;;;;;;;;;5067317;28;41939;-75
2023/09/11 03:00:16;;;;;;;16.77;10.60;;;;;;;;;;5068000;28;42821;-75
2023/09/11 03:02:45;;;;;;;13.98;10.82;;;;;;;;;;5066733;28;40517;-75
2023/09/11 03:05:13;;;;;;;15.43;10.73;;;;;;;;;;5067364;28;41642;-75
2023/09/11 03:07:42;;;;;;;14.88;11.52;;;;;;;;;;5099985;28;41581;-75
2023/09/11 03:10:10;;;;;;;16.70;10.80;;;;;;;;;;5066474;28;41662;-75
2023/09/11 03:12:38;;;;;;;13.55;10.55;;;;;;;;;;5098918;28;40313;-75
2023/09/11 03:15:08;;;;;;;13.68;10.50;;;;;;;;;;5067446;28;39923;-75
2023/09/11 03:17:37;;;;;;;12.50;10.48;;;;;;;;;;5066948;28;42122;-75
2023/09/11 03:20:07;;;;;;;14.05;10.55;;;;;;;;;;5067218;28;42108;-75
2023/09/11 03:22:35;;;;;;;15.85;10.82;;;;;;;;;;5098094;28;38933;-75
2023/09/11 03:25:03;;;;;;;14.82;10.80;;;;;;;;;;5100324;28;40921;-75
2023/09/11 03:27:31;;;;;;;17.65;11.13;;;;;;;;;;5066168;28;43180;-75
2023/09/11 03:29:59;;;;;;;16.40;11.25;;;;;;;;;;5067150;28;40263;-75
2023/09/11 03:32:29;;;;;;;20.27;11.77;;;;;;;;;;5067037;28;42162;-75
2023/09/11 03:34:57;;;;;;;15.13;10.73;;;;;;;;;;5065835;28;39169;-75
2023/09/11 03:37:25;;;;;;;24.67;11.60;;;;;;;;;;5064497;28;41497;-75
2023/09/11 03:39:57;;;;;;;15.95;10.82;;;;;;;;;;5068398;28;41887;-75
2023/09/11 03:42:25;;;;;;;15.93;11.60;;;;;;;;;;5069339;28;42590;-75
2023/09/11 03:44:53;;;;;;;18.75;12.23;;;;;;;;;;5069256;28;40361;-75
2023/09/11 03:47:21;;;;;;;20.33;10.43;;;;;;;;;;5101212;28;40780;-75
2023/09/11 03:49:51;;;;;;;15.75;11.32;;;;;;;;;;5070131;28;40146;-75
2023/09/11 03:52:19;;;;;;;14.25;11.32;;;;;;;;;;5102107;27;40284;-75
2023/09/11 03:54:47;;;;;;;21.85;12.10;;;;;;;;;;5068721;28;38852;-75
2023/09/11 03:57:15;;;;;;;20.13;11.63;;;;;;;;;;5068637;28;41867;-74
2023/09/11 03:59:43;;;;;;;18.30;10.95;;;;;;;;;;5067857;28;41809;-75
2023/09/11 04:02:12;;;;;;;19.95;12.23;;;;;;;;;;5069290;28;39382;-75
2023/09/11 04:04:40;;;;;;;14.57;11.57;;;;;;;;;;5067721;28;40316;-75
2023/09/11 04:07:09;;;;;;;13.48;10.50;;;;;;;;;;5068551;28;41367;-75
2023/09/11 04:09:37;;;;;;;14.93;11.35;;;;;;;;;;5101946;28;39331;-75
2023/09/11 04:12:06;;;;;;;18.42;10.93;;;;;;;;;;5069528;28;41968;-75
2023/09/11 04:14:37;;;;;;;17.10;11.43;;;;;;;;;;5065250;28;42094;-75
2023/09/11 04:17:05;;;;;;;17.58;11.73;;;;;;;;;;5062433;28;40085;-75
2023/09/11 04:19:33;;;;;;;17.70;11.98;;;;;;;;;;5060130;28;41545;-75
2023/09/11 04:22:01;;;;;;;15.57;11.50;;;;;;;;;;5068691;28;39493;-75
2023/09/11 04:24:31;;;;;;;18.35;11.50;;;;;;;;;;5102033;28;40373;-75
2023/09/11 04:26:59;;;;;;;16.05;11.75;;;;;;;;;;5097533;28;40814;-75
2023/09/11 04:29:29;;;;;;;14.60;11.05;;;;;;;;;;5066466;28;41134;-75
2023/09/11 04:31:57;;;;;;;18.60;11.90;;;;;;;;;;5070044;28;41213;-75
2023/09/11 04:34:25;;;;;;;14.48;11.23;;;;;;;;;;5067581;28;41993;-75
2023/09/11 04:36:53;;;;;;;14.00;11.32;;;;;;;;;;5065323;28;39321;-75
2023/09/11 04:39:22;;;;;;;15.88;11.63;;;;;;;;;;5067065;28;40924;-75
2023/09/11 04:41:52;;;;;;;15.88;11.40;;;;;;;;;;5101915;28;39911;-75
2023/09/11 04:44:20;;;;;;;13.45;11.93;;;;;;;;;;5099940;27;40173;-75
2023/09/11 04:46:49;;;;;;;15.57;11.93;;;;;;;;;;5101217;28;40861;-75
2023/09/11 04:49:17;;;;;;;13.55;11.57;;;;;;;;;;5101354;28;40977;-75
2023/09/11 04:51:44;;;;;;;19.70;12.55;;;;;;;;;;5068427;28;40474;-75
2023/09/11 04:54:13;;;;;;;13.77;11.52;;;;;;;;;;5066507;28;42615;-75
2023/09/11 04:56:42;;;;;;;16.92;11.50;;;;;;;;;;5101891;28;40514;-75
2023/09/11 04:59:11;;;;;;;17.17;12.35;;;;;;;;;;5101314;28;41924;-75
2023/09/11 05:01:39;;;;;;;15.13;12.77;;;;;;;;;;5068460;28;40508;-75
2023/09/11 05:04:07;;;;;;;15.88;12.10;;;;;;;;;;5067235;28;42004;-75
2023/09/11 05:06:36;;;;;;;18.42;12.27;;;;;;;;;;5100807;28;40643;-75
2023/09/11 05:09:04;;;;;;;12.68;11.35;;;;;;;;;;5100805;28;39257;-75
2023/09/11 05:11:41;;;;;;;17.67;11.95;;;;;;;;;;5066908;28;40965;-75
2023/09/11 05:14:09;;;;;;;20.55;13.18;;;;;;;;;;5094439;28;40913;-75
2023/09/11 05:16:38;;;;;;;15.93;12.68;;;;;;;;;;5099053;28;38880;-75
2023/09/11 05:19:07;;;;;;;16.95;12.07;;;;;;;;;;5067528;28;42578;-75
2023/09/11 05:21:36;;;;;;;26.98;13.23;;;;;;;;;;5054418;28;39983;-75
2023/09/11 05:24:04;;;;;;;20.23;14.18;;;;;;;;;;5066966;28;41240;-75
2023/09/11 05:26:32;;;;;;;16.10;12.82;;;;;;;;;;5068069;28;43133;-75
2023/09/11 05:29:00;;;;;;;18.77;12.43;;;;;;;;;;5067936;28;40503;-75
2023/09/11 05:31:28;;;;;;;24.35;13.55;;;;;;;;;;5065624;28;41994;-75
2023/09/11 05:33:58;;;;;;;23.42;13.73;;;;;;;;;;5065038;28;42163;-75
2023/09/11 05:36:26;;;;;;;19.30;13.27;;;;;;;;;;5064574;28;40539;-75
2023/09/11 05:38:54;;;;;;;21.25;13.25;;;;;;;;;;5064477;28;42740;-76
2023/09/11 05:41:22;;;;;;;19.42;13.45;;;;;;;;;;5066211;28;41968;-75
2023/09/11 05:43:50;;;;;;;24.08;13.25;;;;;;;;;;5053558;28;41984;-76
2023/09/11 05:46:18;;;;;;;19.55;12.63;;;;;;;;;;5067743;28;43259;-76
2023/09/11 05:48:46;;;;;;;20.40;13.80;;;;;;;;;;5068414;28;40998;-75
2023/09/11 05:51:16;;;;;;;22.85;13.60;;;;;;;;;;5068340;28;42080;-76
2023/09/11 05:53:44;;;;;;;24.38;14.68;;;;;;;;;;5067785;28;43066;-76
2023/09/11 05:56:12;;;;;;;16.77;13.07;;;;;;;;;;5067044;28;43358;-74
2023/09/11 05:58:40;;;;;;;22.50;14.27;;;;;;;;;;5067591;28;42378;-73
2023/09/11 06:01:08;;;;;;;21.38;13.88;;;;;;;;;;5068209;28;42542;-73
2023/09/11 06:03:36;;;;;;;23.70;13.50;;;;;;;;;;5067188;28;39225;-73
2023/09/11 06:06:04;;;;;;;22.77;14.63;;;;;;;;;;5067741;28;42409;-74
2023/09/11 06:08:34;;;;;;;39.95;19.85;;;;;;;;;;5064636;28;41383;-74
2023/09/11 06:11:02;;;;;;;35.22;20.80;;;;;;;;;;5057156;28;42623;-73
2023/09/11 06:13:31;;;;;;;30.70;22.95;;;;;;;;;;5066878;28;41918;-73
2023/09/11 06:15:59;;;;;;;34.22;22.80;;;;;;;;;;5067069;28;41445;-73
2023/09/11 06:18:27;;;;;;;31.17;21.52;;;;;;;;;;5057769;28;42114;-73
2023/09/11 06:20:55;;;;;;;40.85;22.45;;;;;;;;;;5067874;28;43173;-74
2023/09/11 06:23:23;;;;;;;35.45;22.85;;;;;;;;;;5067724;28;41678;-74
2023/09/11 06:25:53;;;;;;;36.70;24.02;;;;;;;;;;5067418;28;43088;-74
2023/09/11 06:28:21;;;;;;;35.78;22.40;;;;;;;;;;5064267;28;40699;-73
2023/09/11 06:30:49;;;;;;;36.78;22.05;;;;;;;;;;5061573;28;41527;-73
2023/09/11 06:33:17;;;;;;;29.17;23.63;;;;;;;;;;5067040;28;41998;-73
2023/09/11 06:35:45;;;;;;;30.92;22.63;;;;;;;;;;5061421;28;41337;-73
2023/09/11 06:38:13;;;;;;;33.78;23.23;;;;;;;;;;5054667;28;41862;-73
2023/09/11 06:40:41;;;;;;;33.72;22.73;;;;;;;;;;5056121;28;42301;-73
2023/09/11 06:43:10;;;;;;;35.78;23.42;;;;;;;;;;5068347;28;40372;-73
2023/09/11 06:45:38;;;;;;;31.88;22.75;;;;;;;;;;5064204;28;41796;-73
2023/09/11 06:48:07;;;;;;;35.80;23.90;;;;;;;;;;5057736;28;43114;-73
2023/09/11 06:50:35;;;;;;;34.10;23.55;;;;;;;;;;5067647;28;41784;-73
2023/09/11 06:53:03;;;;;;;29.80;23.10;;;;;;;;;;5066968;28;42280;-73
2023/09/11 06:55:31;;;;;;;32.83;22.73;;;;;;;;;;5066536;28;40721;-73
2023/09/11 06:58:01;;;;;;;33.30;22.73;;;;;;;;;;5067441;28;42487;-74
2023/09/11 07:00:30;;;;;;;33.45;23.00;;;;;;;;;;5065170;28;43230;-73
2023/09/11 07:02:58;;;;;;;30.92;22.23;;;;;;;;;;5066893;28;40511;-73
2023/09/11 07:05:27;;;;;;;37.10;22.70;;;;;;;;;;5064992;28;41967;-73
2023/09/11 07:07:55;;;;;;;72.82;23.52;;;;;;;;;;5052854;28;43014;-75
2023/09/11 07:10:23;;;;;;;41.80;20.67;;;;;;;;;;5052599;28;41586;-74
2023/09/11 07:13:07;;;;;;;42.90;22.85;;;;;;;;;;5065059;28;41880;-74
2023/09/11 07:15:36;;;;;;;39.50;19.60;;;;;;;;;;5069567;28;40594;-74
2023/09/11 07:18:05;;;;;;;41.88;20.92;;;;;;;;;;5063367;28;42118;-74
2023/09/11 07:20:33;;;;;;;34.15;19.15;;;;;;;;;;5064922;28;41891;-74
2023/09/11 07:23:01;;;;;;;31.33;20.98;;;;;;;;;;5070713;28;40454;-74
2023/09/11 07:25:29;;;;;;;31.50;21.10;;;;;;;;;;5071037;28;41650;-74
2023/09/11 07:27:57;;;;;;;29.45;20.40;;;;;;;;;;5070614;28;41446;-74
2023/09/11 07:30:25;;;;;;;32.58;19.15;;;;;;;;;;5068394;28;41363;-74
2023/09/11 07:32:55;;;;;;;30.73;19.15;;;;;;;;;;5069689;28;41484;-74
2023/09/11 07:35:23;;;;;;;24.60;19.40;;;;;;;;;;5068460;28;40104;-74
2023/09/11 07:37:51;;;;;;;29.75;18.20;;;;;;;;;;5069408;28;41293;-74
2023/09/11 07:40:19;;;;;;;31.02;17.85;;;;;;;;;;5068850;28;43395;-74
2023/09/11 07:42:47;;;;;;;27.98;18.63;;;;;;;;;;5067598;28;41225;-75
2023/09/11 07:45:15;;;;;;;31.45;18.42;;;;;;;;;;5063335;28;41037;-74
2023/09/11 07:47:44;;;;;;;29.45;17.75;;;;;;;;;;5067253;28;42036;-74
2023/09/11 07:50:13;;;;;;;23.73;16.13;;;;;;;;;;5063596;28;42365;-74
2023/09/11 07:52:42;;;;;;;24.88;16.70;;;;;;;;;;5063611;28;41978;-74
2023/09/11 07:55:10;;;;;;;35.67;16.27;;;;;;;;;;5064002;28;40711;-74
2023/09/11 07:57:40;;;;;;;23.60;14.63;;;;;;;;;;5064525;28;42334;-74
2023/09/11 08:00:08;;;;;;;23.17;14.23;;;;;;;;;;5070185;28;42767;-73
2023/09/11 08:02:37;;;;;;;24.40;13.30;;;;;;;;;;5059797;28;40343;-73
2023/09/11 08:05:05;;;;;;;20.40;13.07;;;;;;;;;;5069506;28;41979;-74
2023/09/11 08:07:34;;;;;;;26.05;13.35;;;;;;;;;;5066951;28;43297;-73
2023/09/11 08:10:05;;;;;;;16.77;12.95;;;;;;;;;;5061022;28;40370;-74
2023/09/11 08:12:34;;;;;;;17.67;12.40;;;;;;;;;;5063258;28;41003;-73
2023/09/11 08:15:03;;;;;;;20.40;12.43;;;;;;;;;;5058755;28;42375;-74
2023/09/11 08:17:31;;;;;;;20.38;11.63;;;;;;;;;;5056511;28;40854;-73
2023/09/11 08:19:59;;;;;;;12.35;10.98;;;;;;;;;;5066235;28;42733;-73
2023/09/11 08:22:27;;;;;;;22.83;13.00;;;;;;;;;;5061636;28;40576;-73
2023/09/11 08:24:57;;;;;;;12.77;11.38;;;;;;;;;;5055613;28;40926;-74
2023/09/11 08:27:25;;;;;;;15.40;11.50;;;;;;;;;;5064428;28;41794;-73
2023/09/11 08:29:55;;;;;;;15.90;12.23;;;;;;;;;;5062470;28;41849;-73
2023/09/11 08:32:23;;;;;;;15.35;11.48;;;;;;;;;;5060294;28;42350;-74
2023/09/11 08:34:51;;;;;;;16.23;11.93;;;;;;;;;;5069392;28;42597;-74
2023/09/11 08:37:19;;;;;;;21.02;11.02;;;;;;;;;;5062934;28;39975;-74
2023/09/11 08:39:47;;;;;;;13.65;11.23;;;;;;;;;;5067646;28;42498;-74
2023/09/11 08:42:17;;;;;;;15.88;11.25;;;;;;;;;;5069322;28;40040;-73
2023/09/11 08:44:45;;;;;;;13.27;11.88;;;;;;;;;;5069359;28;42621;-73
2023/09/11 08:47:13;;;;;;;18.60;12.15;;;;;;;;;;5068612;28;42027;-73
2023/09/11 08:49:44;;;;;;;12.77;10.43;;;;;;;;;;5061306;28;40823;-74
2023/09/11 08:52:13;;;;;;;15.82;10.88;;;;;;;;;;5063325;28;41066;-74
2023/09/11 08:54:42;;;;;;;13.38;11.27;;;;;;;;;;5056562;28;43096;-74
2023/09/11 08:57:10;;;;;;;11.52;10.38;;;;;;;;;;5065413;28;41468;-73
2023/09/11 08:59:40;;;;;;;12.75;11.43;;;;;;;;;;5058629;28;41935;-73
2023/09/11 09:02:08;;;;;;;14.02;10.38;;;;;;;;;;5067829;28;40454;-73
2023/09/11 09:04:37;;;;;;;13.68;11.73;;;;;;;;;;5057588;28;41661;-74
2023/09/11 09:07:05;;;;;;;12.57;9.98;;;;;;;;;;5057969;28;41994;-73
2023/09/11 09:09:34;;;;;;;13.80;9.73;;;;;;;;;;5066439;28;40745;-74
2023/09/11 09:12:02;;;;;;;17.05;11.07;;;;;;;;;;5069182;28;41542;-74
2023/09/11 09:14:30;;;;;;;18.20;10.73;;;;;;;;;;5066223;28;41798;-73
2023/09/11 09:17:02;;;;;;;13.40;10.10;;;;;;;;;;5065677;28;40546;-74
2023/09/11 09:19:30;;;;;;;15.57;11.60;;;;;;;;;;5067742;28;41615;-73
2023/09/11 09:22:10;;;;;;;12.20;9.50;;;;;;;;;;5065481;28;41336;-73
2023/09/11 09:24:46;;;;;;;11.40;9.40;;;;;;;;;;5058527;28;41604;-74
2023/09/11 09:27:14;;;;;;;16.33;10.43;;;;;;;;;;5064535;28;41755;-74
2023/09/11 09:29:42;;;;;;;11.20;9.48;;;;;;;;;;5063897;28;40921;-74
2023/09/11 09:32:12;;;;;;;16.92;9.73;;;;;;;;;;5065729;28;42039;-74
2023/09/11 09:34:42;;;;;;;16.98;10.20;;;;;;;;;;5067125;28;20226;-73
2023/09/11 09:37:15;;;;;;;14.38;9.38;;;;;;;;;;5056250;28;41347;-73
2023/09/11 09:39:44;;;;;;;13.27;11.30;;;;;;;;;;5048939;28;41957;-73
2023/09/11 09:42:12;;;;;;;12.00;9.65;;;;;;;;;;5064834;28;42071;-73
2023/09/11 09:44:40;;;;;;;17.10;11.07;;;;;;;;;;5067940;28;42687;-74
2023/09/11 09:47:09;;;;;;;14.93;11.40;;;;;;;;;;5052327;28;43298;-74
2023/09/11 09:49:43;;;;;;;16.20;11.52;;;;;;;;;;5052787;28;40684;-73
2023/09/11 09:52:12;;;;;;;14.70;11.07;;;;;;;;;;5065840;28;40399;-73
2023/09/11 09:54:44;;;;;;;11.73;9.65;;;;;;;;;;5067245;28;41966;-75
2023/09/11 09:57:13;;;;;;;20.58;11.43;;;;;;;;;;5065826;28;41005;-73
2023/09/11 09:59:41;;;;;;;21.00;10.88;;;;;;;;;;5060639;28;41414;-73
2023/09/11 10:02:10;;;;;;;15.27;9.65;;;;;;;;;;5068530;28;42909;-75
2023/09/11 10:04:38;;;;;;;14.05;10.50;;;;;;;;;;5065996;28;40415;-74
2023/09/11 10:07:07;;;;;;;15.45;9.77;;;;;;;;;;5066364;28;42598;-74
2023/09/11 10:09:35;;;;;;;16.52;11.90;;;;;;;;;;5065711;28;40205;-74
2023/09/11 10:12:04;;;;;;;14.57;11.35;;;;;;;;;;5065760;28;42906;-75
2023/09/11 10:14:32;;;;;;;16.42;10.38;;;;;;;;;;5062126;28;41476;-74
2023/09/11 10:17:00;;;;;;;20.65;10.93;;;;;;;;;;5064203;28;40548;-75
2023/09/11 10:19:28;;;;;;;15.68;10.60;;;;;;;;;;5064412;28;42405;-74
2023/09/11 10:21:57;;;;;;;16.90;9.90;;;;;;;;;;5066865;28;42437;-74
2023/09/11 10:24:26;;;;;;;13.60;11.93;;;;;;;;;;5065895;28;40229;-73
2023/09/11 10:26:55;;;;;;;14.88;11.57;;;;;;;;;;5067360;28;41441;-74
2023/09/11 10:29:26;;;;;;;18.05;10.25;;;;;;;;;;5065336;28;38852;-74
2023/09/11 10:31:54;;;;;;;17.52;11.02;;;;;;;;;;5066838;28;41247;-74
2023/09/11 10:34:23;;;;;;;14.25;10.10;;;;;;;;;;5066175;28;43168;-74
2023/09/11 10:36:53;;;;;;;14.07;10.45;;;;;;;;;;5066239;28;41489;-74
2023/09/11 10:39:20;;;;;;;14.27;10.25;;;;;;;;;;5065593;28;41782;-74
2023/09/11 10:41:50;;;;;;;17.35;11.77;;;;;;;;;;5065804;28;42806;-74
2023/09/11 10:44:18;;;;;;;17.73;10.52;;;;;;;;;;5066175;28;42004;-74
2023/09/11 10:46:49;;;;;;;14.02;10.15;;;;;;;;;;5065338;28;41702;-74
2023/09/11 10:49:18;;;;;;;17.35;10.70;;;;;;;;;;5068085;28;42155;-74
2023/09/11 10:51:46;;;;;;;15.32;10.30;;;;;;;;;;5070073;28;42038;-74
2023/09/11 10:54:14;;;;;;;16.27;10.60;;;;;;;;;;5066763;28;43076;-74
2023/09/11 10:56:43;;;;;;;18.58;11.13;;;;;;;;;;5069270;28;41344;-74
2023/09/11 10:59:14;;;;;;;16.98;10.68;;;;;;;;;;5069276;28;41600;-74
2023/09/11 11:01:44;;;;;;;17.70;10.57;;;;;;;;;;5070072;28;41582;-75
2023/09/11 11:04:13;;;;;;;25.98;11.45;;;;;;;;;;5070071;28;40821;-75
2023/09/11 11:06:43;;;;;;;13.68;9.98;;;;;;;;;;5068951;28;41644;-75
2023/09/11 11:09:23;;;;;;;13.15;10.20;;;;;;;;;;5069699;28;42711;-75
2023/09/11 11:12:02;;;;;;;15.80;10.85;;;;;;;;;;5065994;28;40473;-74
2023/09/11 11:14:32;;;;;;;15.18;11.65;;;;;;;;;;5068684;28;43066;-74
2023/09/11 11:17:02;;;;;;;14.43;10.88;;;;;;;;;;5070187;28;40931;-74
2023/09/11 11:19:30;;;;;;;18.63;13.57;;;;;;;;;;5069830;28;42616;-74
2023/09/11 11:21:59;;;;;;;23.80;15.27;;;;;;;;;;5071000;28;42027;-75
2023/09/11 11:24:28;;;;;;;15.65;11.43;;;;;;;;;;5064278;28;40203;-75
2023/09/11 11:26:56;;;;;;;18.17;13.73;;;;;;;;;;5071407;28;42959;-75
2023/09/11 11:29:26;;;;;;;15.63;12.57;;;;;;;;;;5070834;28;43142;-75
2023/09/11 11:31:57;;;;;;;13.52;11.35;;;;;;;;;;5069701;28;40297;-74
2023/09/11 11:34:28;;;;;;;12.43;11.18;;;;;;;;;;5065499;28;42159;-75
2023/09/11 11:36:58;;;;;;;16.52;12.43;;;;;;;;;;5068342;28;41427;-74
2023/09/11 11:39:26;;;;;;;13.02;11.63;;;;;;;;;;5069129;28;42577;-75
2023/09/11 11:41:55;;;;;;;16.25;12.40;;;;;;;;;;5068089;28;42108;-75
2023/09/11 11:44:23;;;;;;;17.35;12.60;;;;;;;;;;5069144;28;40817;-75
2023/09/11 11:46:52;;;;;;;16.85;11.90;;;;;;;;;;5068856;28;42208;-75
2023/09/11 11:49:21;;;;;;;14.02;11.40;;;;;;;;;;5068772;28;42167;-76
2023/09/11 11:51:50;;;;;;;15.50;10.63;;;;;;;;;;5068594;28;40359;-76
2023/09/11 11:54:20;;;;;;;15.85;12.80;;;;;;;;;;5069060;28;41575;-75
2023/09/11 11:56:48;;;;;;;12.60;11.30;;;;;;;;;;5067363;28;40840;-75
2023/09/11 11:59:16;;;;;;;13.30;11.48;;;;;;;;;;5067992;28;42419;-75
2023/09/11 12:01:44;;;;;;;12.65;11.38;;;;;;;;;;5056226;28;42113;-75
2023/09/11 12:04:12;;;;;;;15.90;11.35;;;;;;;;;;5068647;28;41420;-76
2023/09/11 12:06:42;;;;;;;12.00;10.80;;;;;;;;;;5069023;28;41350;-76
2023/09/11 12:09:10;;;;;;;13.93;10.85;;;;;;;;;;5069237;28;42827;-76
2023/09/11 12:11:39;;;;;;;15.23;11.18;;;;;;;;;;5058800;28;41165;-75
2023/09/11 12:14:12;;;;;;;13.73;10.77;;;;;;;;;;5067755;28;40982;-75
2023/09/11 12:16:40;;;;;;;14.60;11.05;;;;;;;;;;5067679;28;43226;-75
2023/09/11 12:19:08;;;;;;;10.60;9.57;;;;;;;;;;5069478;28;42248;-76
2023/09/11 12:21:36;;;;;;;12.30;10.65;;;;;;;;;;5092517;28;41776;-75
2023/09/11 12:24:08;;;;;;;12.00;10.50;;;;;;;;;;5065272;28;41360;-75
2023/09/11 12:26:36;;;;;;;14.25;10.65;;;;;;;;;;5052613;28;42501;-75
2023/09/11 12:29:05;;;;;;;17.58;11.73;;;;;;;;;;5059718;28;42786;-74
2023/09/11 12:31:32;;;;;;;13.90;11.27;;;;;;;;;;5062300;28;40542;-75
2023/09/11 12:34:00;;;;;;;12.90;11.55;;;;;;;;;;5069432;28;41679;-74
2023/09/11 12:36:30;;;;;;;15.73;11.20;;;;;;;;;;5068519;28;42794;-75
2023/09/11 12:38:58;;;;;;;12.25;10.95;;;;;;;;;;5065805;28;41294;-74
2023/09/11 12:41:28;;;;;;;16.48;11.52;;;;;;;;;;5068063;28;43347;-74
2023/09/11 12:43:59;;;;;;;10.93;10.02;;;;;;;;;;5064309;28;41105;-74
2023/09/11 12:46:27;;;;;;;14.43;9.98;;;;;;;;;;5061553;28;41540;-74
2023/09/11 12:48:55;;;;;;;11.15;9.70;;;;;;;;;;5069826;28;42738;-75
2023/09/11 12:51:24;;;;;;;11.07;10.05;;;;;;;;;;5065531;28;41387;-75
2023/09/11 12:53:52;;;;;;;10.60;9.52;;;;;;;;;;5063642;28;41728;-75
2023/09/11 12:56:20;;;;;;;9.75;8.75;;;;;;;;;;5069169;28;42618;-75
2023/09/11 12:58:49;;;;;;;10.73;9.63;;;;;;;;;;5063833;28;38793;-75
2023/09/11 13:01:17;;;;;;;9.82;8.93;;;;;;;;;;5069587;28;41697;-75
2023/09/11 13:03:46;;;;;;;9.77;8.98;;;;;;;;;;5069220;28;41060;-75
2023/09/11 13:06:15;;;;;;;8.43;7.72;;;;;;;;;;5068740;28;41397;-75
2023/09/11 13:08:44;;;;;;;10.02;8.20;;;;;;;;;;5068590;28;42905;-75
2023/09/11 13:11:12;;;;;;;9.05;8.15;;;;;;;;;;5068763;28;40836;-75
2023/09/11 13:13:40;;;;;;;10.13;7.60;;;;;;;;;;5067565;28;41642;-75
2023/09/11 13:16:09;;;;;;;8.85;7.90;;;;;;;;;;5068508;28;42202;-75
2023/09/11 13:18:37;;;;;;;9.85;8.07;;;;;;;;;;5068463;28;40209;-74
2023/09/11 13:21:05;;;;;;;8.82;7.93;;;;;;;;;;5067818;28;41810;-74
2023/09/11 13:23:33;;;;;;;9.35;8.32;;;;;;;;;;5068174;28;33985;-75
2023/09/11 13:26:01;;;;;;;11.13;9.13;;;;;;;;;;5067880;28;42735;-76
2023/09/11 13:28:29;;;;;;;9.57;8.68;;;;;;;;;;5065900;28;41426;-76
2023/09/11 13:30:59;;;;;;;10.02;8.93;;;;;;;;;;5067499;28;40473;-76
2023/09/11 13:33:29;;;;;;;9.52;8.57;;;;;;;;;;5067696;28;41248;-75
2023/09/11 13:35:57;;;;;;;10.90;8.80;;;;;;;;;;5067066;28;41749;-75
2023/09/11 13:38:25;;;;;;;9.00;8.25;;;;;;;;;;5067632;28;40868;-76
2023/09/11 13:40:53;;;;;;;9.32;8.52;;;;;;;;;;5068250;28;41873;-75
2023/09/11 13:43:21;;;;;;;9.75;8.85;;;;;;;;;;5066188;28;43154;-76
2023/09/11 13:45:49;;;;;;;9.48;8.00;;;;;;;;;;5067706;28;42606;-76
2023/09/11 13:48:17;;;;;;;9.23;8.43;;;;;;;;;;5066707;28;42080;-76
2023/09/11 13:50:47;;;;;;;9.35;8.35;;;;;;;;;;5066932;28;41497;-76
2023/09/11 13:53:15;;;;;;;9.02;8.15;;;;;;;;;;5068050;28;41465;-76
2023/09/11 13:55:43;;;;;;;9.13;8.25;;;;;;;;;;5066349;28;42374;-76
2023/09/11 13:58:11;;;;;;;8.45;7.75;;;;;;;;;;5066876;28;40344;-76
2023/09/11 14:00:39;;;;;;;8.88;8.07;;;;;;;;;;5066920;28;41629;-76
2023/09/11 14:03:07;;;;;;;9.30;8.15;;;;;;;;;;5067019;28;42110;-76
2023/09/11 14:05:40;;;;;;;8.52;7.65;;;;;;;;;;5066330;28;41412;-76
2023/09/11 14:08:15;;;;;;;8.80;7.97;;;;;;;;;;5064749;28;43338;-76
2023/09/11 14:10:44;;;;;;;9.32;8.43;;;;;;;;;;5066299;28;41147;-76
2023/09/11 14:13:12;;;;;;;9.00;8.00;;;;;;;;;;5064877;28;41209;-76
2023/09/11 14:15:40;;;;;;;10.48;9.43;;;;;;;;;;5065442;28;42952;-76
2023/09/11 14:18:08;;;;;;;10.07;9.07;;;;;;;;;;5066820;28;39990;-76
2023/09/11 14:20:37;;;;;;;11.15;8.10;;;;;;;;;;5064018;28;40421;-76
2023/09/11 14:23:05;;;;;;;8.95;8.15;;;;;;;;;;5060080;28;42769;-76
2023/09/11 14:25:34;;;;;;;9.70;8.70;;;;;;;;;;5062771;28;40261;-76
2023/09/11 14:28:03;;;;;;;14.10;9.50;;;;;;;;;;5060679;28;40183;-76
2023/09/11 14:30:31;;;;;;;12.65;9.20;;;;;;;;;;5060290;28;40194;-76